createdAt,value
2023-06-17T00:00:22.845Z,59.32
2023-06-17T00:00:54.915Z,59.32
2023-06-17T00:01:27.067Z,59.55
2023-06-17T00:01:59.012Z,59.64
2023-06-17T00:02:31.180Z,59.21
2023-06-17T00:03:03.567Z,59.68
2023-06-17T00:03:35.768Z,59.89
2023-06-17T00:04:10.842Z,59.67
2023-06-17T00:04:42.795Z,59.78
2023-06-17T00:05:14.717Z,60.08
2023-06-17T00:05:46.632Z,59.86
2023-06-17T00:06:18.582Z,59.83
2023-06-17T00:06:50.473Z,59.85
2023-06-17T00:07:22.473Z,60.19
2023-06-17T00:07:54.468Z,59.85
2023-06-17T00:08:26.450Z,59.58
2023-06-17T00:08:58.677Z,60.48
2023-06-17T00:09:30.640Z,60.57
2023-06-17T00:10:02.593Z,59.93
2023-06-17T00:10:34.492Z,60.03
2023-06-17T00:11:06.582Z,60.20
2023-06-17T00:11:38.999Z,60.19
2023-06-17T00:12:13.641Z,60.43
2023-06-17T00:12:45.990Z,60.18
2023-06-17T00:13:20.972Z,60.10
2023-06-17T00:13:53.427Z,60.16
2023-06-17T00:14:25.875Z,60.51
2023-06-17T00:14:58.474Z,60.59
2023-06-17T00:15:34.176Z,60.38
2023-06-17T00:16:07.428Z,60.62
2023-06-17T00:16:45.012Z,60.67
2023-06-17T00:17:17.230Z,60.87
2023-06-17T00:17:51.613Z,60.78
2023-06-17T00:18:27.572Z,60.41
2023-06-17T00:19:00.061Z,60.71
2023-06-17T00:19:32.018Z,60.67
2023-06-17T00:20:12.557Z,60.58
2023-06-17T00:20:44.508Z,60.26
2023-06-17T00:21:16.453Z,60.64
2023-06-17T00:21:50.922Z,60.60
2023-06-17T00:22:25.851Z,60.41
2023-06-17T00:22:57.834Z,60.11
2023-06-17T00:23:29.831Z,60.36
2023-06-17T00:24:01.798Z,60.56
2023-06-17T00:24:34.014Z,60.42
2023-06-17T00:25:07.264Z,60.26
2023-06-17T00:25:39.152Z,60.50
2023-06-17T00:26:11.048Z,60.45
2023-06-17T00:26:43.103Z,61.00
2023-06-17T00:27:15.009Z,60.63
2023-06-17T00:27:47.020Z,60.36
2023-06-17T00:28:19.156Z,60.64
2023-06-17T00:28:51.165Z,60.76
2023-06-17T00:29:24.507Z,61.06
2023-06-17T00:30:00.913Z,61.07
2023-06-17T00:30:32.870Z,60.96
2023-06-17T00:31:04.921Z,60.88
2023-06-17T00:31:36.848Z,60.89
2023-06-17T00:32:08.906Z,60.95
2023-06-17T00:32:42.240Z,60.98
2023-06-17T00:33:15.178Z,60.68
2023-06-17T00:33:47.146Z,61.13
2023-06-17T00:34:19.137Z,60.79
2023-06-17T00:34:51.066Z,60.69
2023-06-17T00:35:23.133Z,61.07
2023-06-17T00:35:56.066Z,60.50
2023-06-17T00:36:28.227Z,60.94
2023-06-17T00:37:00.175Z,60.39
2023-06-17T00:37:32.656Z,60.24
2023-06-17T00:38:04.796Z,60.26
2023-06-17T00:38:36.805Z,60.73
2023-06-17T00:39:08.859Z,60.81
2023-06-17T00:39:40.860Z,60.72
2023-06-17T00:40:13.341Z,60.35
2023-06-17T00:40:45.495Z,60.96
2023-06-17T00:41:18.172Z,60.69
2023-06-17T00:41:50.255Z,60.66
2023-06-17T00:42:22.158Z,60.43
2023-06-17T00:42:54.455Z,60.94
2023-06-17T00:43:26.386Z,60.80
2023-06-17T00:43:58.320Z,61.30
2023-06-17T00:44:30.344Z,60.79
2023-06-17T00:45:02.632Z,60.83
2023-06-17T00:45:40.500Z,60.94
2023-06-17T00:46:28.653Z,60.92
2023-06-17T00:47:00.877Z,61.53
2023-06-17T00:47:33.015Z,61.19
2023-06-17T00:48:05.578Z,61.11
2023-06-17T00:48:37.792Z,61.43
2023-06-17T00:49:10.983Z,61.13
2023-06-17T00:49:45.770Z,61.39
2023-06-17T00:50:18.563Z,61.04
2023-06-17T00:50:51.237Z,61.06
2023-06-17T00:51:23.736Z,61.45
2023-06-17T00:52:08.497Z,61.35
2023-06-17T00:52:52.649Z,61.19
2023-06-17T00:53:24.639Z,61.58
2023-06-17T00:53:57.441Z,61.60
2023-06-17T00:54:29.937Z,61.41
2023-06-17T00:55:02.383Z,61.82
2023-06-17T00:55:35.264Z,61.62
2023-06-17T00:56:07.266Z,61.55
2023-06-17T00:56:40.692Z,61.81
2023-06-17T00:57:15.211Z,61.61
2023-06-17T00:57:48.866Z,61.62
2023-06-17T00:58:21.067Z,61.64
2023-06-17T00:58:55.426Z,61.11
2023-06-17T00:59:27.433Z,61.75
2023-06-17T00:59:59.623Z,61.12
2023-06-17T01:00:32.127Z,61.75
2023-06-17T01:01:04.347Z,61.71
2023-06-17T01:01:37.616Z,61.42
2023-06-17T01:02:10.939Z,61.79
2023-06-17T01:02:45.590Z,61.62
2023-06-17T01:03:18.984Z,61.42
2023-06-17T01:03:51.302Z,61.48
2023-06-17T01:04:23.371Z,61.73
2023-06-17T01:04:55.752Z,61.74
2023-06-17T01:05:29.239Z,61.72
2023-06-17T01:06:13.250Z,62.01
2023-06-17T01:07:31.401Z,61.37
2023-06-17T01:08:21.164Z,62.06
2023-06-17T01:09:08.318Z,61.65
2023-06-17T01:09:47.139Z,61.64
2023-06-17T01:10:33.509Z,62.02
2023-06-17T01:11:09.595Z,61.75
2023-06-17T01:11:43.259Z,61.71
2023-06-17T01:12:17.144Z,61.88
2023-06-17T01:12:51.409Z,61.56
2023-06-17T01:13:24.663Z,61.75
2023-06-17T01:13:58.518Z,61.98
2023-06-17T01:14:33.990Z,62.03
2023-06-17T01:15:06.601Z,62.04
2023-06-17T01:15:39.449Z,61.70
2023-06-17T01:16:12.214Z,61.81
2023-06-17T01:16:45.083Z,61.62
2023-06-17T01:17:19.272Z,61.62
2023-06-17T01:17:55.652Z,62.02
2023-06-17T01:18:31.064Z,61.84
2023-06-17T01:19:05.160Z,61.74
2023-06-17T01:19:39.303Z,61.62
2023-06-17T01:20:14.334Z,62.37
2023-06-17T01:20:49.877Z,61.97
2023-06-17T01:21:23.449Z,61.97
2023-06-17T01:21:56.299Z,62.05
2023-06-17T01:22:29.119Z,61.60
2023-06-17T01:23:02.538Z,61.91
2023-06-17T01:23:38.355Z,61.74
2023-06-17T01:24:14.275Z,62.01
2023-06-17T01:24:48.146Z,61.67
2023-06-17T01:25:21.872Z,62.09
2023-06-17T01:25:54.148Z,61.49
2023-06-17T01:26:26.141Z,62.00
2023-06-17T01:27:01.257Z,61.74
2023-06-17T01:27:34.841Z,61.45
2023-06-17T01:28:21.367Z,61.54
2023-06-17T01:28:54.542Z,61.44
2023-06-17T01:29:27.758Z,61.65
2023-06-17T01:29:59.813Z,61.67
2023-06-17T01:30:33.010Z,61.56
2023-06-17T01:31:06.171Z,61.53
2023-06-17T01:31:38.184Z,61.50
2023-06-17T01:32:10.701Z,61.53
2023-06-17T01:32:43.037Z,61.69
2023-06-17T01:33:16.324Z,61.55
2023-06-17T01:33:52.425Z,61.43
2023-06-17T01:34:39.088Z,61.69
2023-06-17T01:35:17.820Z,61.78
2023-06-17T01:36:13.895Z,61.66
2023-06-17T01:36:47.662Z,61.45
2023-06-17T01:37:31.200Z,61.51
2023-06-17T01:38:29.390Z,61.56
2023-06-17T01:39:04.711Z,61.80
2023-06-17T01:39:38.924Z,61.74
2023-06-17T01:40:15.577Z,61.63
2023-06-17T01:40:58.568Z,61.67
2023-06-17T01:41:53.224Z,61.83
2023-06-17T01:42:39.614Z,61.33
2023-06-17T01:43:16.871Z,61.92
2023-06-17T01:43:51.261Z,61.71
2023-06-17T01:44:26.096Z,61.73
2023-06-17T01:45:01.324Z,61.55
2023-06-17T01:45:34.668Z,61.87
2023-06-17T01:46:08.134Z,61.79
2023-06-17T01:46:41.922Z,61.99
2023-06-17T01:47:14.054Z,62.02
2023-06-17T01:47:46.916Z,61.87
2023-06-17T01:48:19.174Z,61.90
2023-06-17T01:48:55.089Z,61.74
2023-06-17T01:49:27.108Z,61.83
2023-06-17T01:50:05.445Z,62.19
2023-06-17T01:50:37.945Z,62.09
2023-06-17T01:51:10.243Z,62.43
2023-06-17T01:52:14.431Z,62.34
2023-06-17T01:52:47.480Z,62.24
2023-06-17T01:53:19.762Z,62.39
2023-06-17T01:53:52.100Z,62.38
2023-06-17T01:54:24.975Z,62.66
2023-06-17T01:54:57.932Z,62.29
2023-06-17T01:55:30.063Z,62.06
2023-06-17T01:56:02.094Z,62.33
2023-06-17T01:56:34.110Z,62.51
2023-06-17T01:57:06.352Z,62.61
2023-06-17T01:57:38.344Z,62.27
2023-06-17T01:58:10.438Z,62.35
2023-06-17T01:58:42.417Z,62.44
2023-06-17T01:59:14.399Z,62.35
2023-06-17T01:59:46.425Z,62.15
2023-06-17T02:00:19.188Z,62.15
2023-06-17T02:00:51.543Z,62.40
2023-06-17T02:01:23.675Z,62.32
2023-06-17T02:01:55.899Z,62.97
2023-06-17T02:02:27.903Z,62.50
2023-06-17T02:02:59.958Z,62.95
2023-06-17T02:03:32.149Z,62.79
2023-06-17T02:04:04.479Z,62.89
2023-06-17T02:04:36.712Z,62.65
2023-06-17T02:05:10.063Z,63.19
2023-06-17T02:05:41.998Z,62.98
2023-06-17T02:06:14.095Z,62.87
2023-06-17T02:06:46.015Z,63.29
2023-06-17T02:07:18.889Z,62.82
2023-06-17T02:07:50.903Z,62.71
2023-06-17T02:08:24.665Z,62.80
2023-06-17T02:08:57.123Z,63.40
2023-06-17T02:09:29.114Z,62.74
2023-06-17T02:10:01.581Z,62.87
2023-06-17T02:10:33.945Z,62.74
2023-06-17T02:11:06.087Z,63.04
2023-06-17T02:11:38.039Z,63.30
2023-06-17T02:12:10.201Z,63.30
2023-06-17T02:12:42.286Z,62.87
2023-06-17T02:13:14.494Z,63.13
2023-06-17T02:13:46.445Z,62.82
2023-06-17T02:14:18.569Z,62.82
2023-06-17T02:14:50.561Z,63.33
2023-06-17T02:15:22.535Z,63.11
2023-06-17T02:15:54.551Z,63.20
2023-06-17T02:16:27.466Z,63.06
2023-06-17T02:16:59.882Z,63.46
2023-06-17T02:17:31.879Z,63.27
2023-06-17T02:18:03.978Z,63.34
2023-06-17T02:18:36.283Z,63.43
2023-06-17T02:19:08.605Z,63.51
2023-06-17T02:19:40.975Z,63.48
2023-06-17T02:20:13.905Z,63.47
2023-06-17T02:20:48.084Z,63.78
2023-06-17T02:21:20.103Z,63.50
2023-06-17T02:21:52.033Z,63.46
2023-06-17T02:22:23.992Z,63.25
2023-06-17T02:22:55.933Z,63.75
2023-06-17T02:23:28.329Z,63.48
2023-06-17T02:24:00.389Z,63.23
2023-06-17T02:24:32.578Z,63.33
2023-06-17T02:25:06.410Z,63.38
2023-06-17T02:25:40.941Z,63.40
2023-06-17T02:26:13.260Z,63.36
2023-06-17T02:26:45.637Z,63.27
2023-06-17T02:27:18.131Z,63.72
2023-06-17T02:27:50.212Z,63.25
2023-06-17T02:28:22.517Z,63.31
2023-06-17T02:28:54.482Z,63.35
2023-06-17T02:29:26.864Z,63.68
2023-06-17T02:30:03.597Z,63.71
2023-06-17T02:30:35.758Z,63.72
2023-06-17T02:31:08.728Z,63.84
2023-06-17T02:31:40.832Z,63.22
2023-06-17T02:32:13.421Z,63.57
2023-06-17T02:32:45.516Z,63.32
2023-06-17T02:33:19.458Z,63.35
2023-06-17T02:33:51.479Z,64.38
2023-06-17T02:34:23.432Z,63.72
2023-06-17T02:34:55.674Z,63.81
2023-06-17T02:35:28.312Z,63.90
2023-06-17T02:36:00.673Z,63.42
2023-06-17T02:36:32.720Z,63.67
2023-06-17T02:37:05.128Z,64.08
2023-06-17T02:37:37.508Z,63.69
2023-06-17T02:38:09.553Z,63.40
2023-06-17T02:38:42.012Z,63.50
2023-06-17T02:39:13.971Z,63.62
2023-06-17T02:39:45.850Z,63.56
2023-06-17T02:40:18.118Z,63.66
2023-06-17T02:40:50.219Z,63.34
2023-06-17T02:41:22.129Z,63.51
2023-06-17T02:41:54.444Z,63.80
2023-06-17T02:42:26.413Z,63.24
2023-06-17T02:42:58.333Z,63.41
2023-06-17T02:43:30.480Z,63.55
2023-06-17T02:44:02.503Z,63.88
2023-06-17T02:44:34.482Z,63.56
2023-06-17T02:45:08.571Z,63.82
2023-06-17T02:45:40.627Z,63.38
2023-06-17T02:46:12.871Z,63.73
2023-06-17T02:46:44.866Z,63.88
2023-06-17T02:47:16.939Z,64.11
2023-06-17T02:47:48.972Z,63.88
2023-06-17T02:48:22.336Z,63.74
2023-06-17T02:48:56.136Z,63.95
2023-06-17T02:49:28.058Z,64.09
2023-06-17T02:50:00.207Z,63.69
2023-06-17T02:50:32.169Z,63.89
2023-06-17T02:51:05.343Z,63.82
2023-06-17T02:51:38.002Z,63.74
2023-06-17T02:52:10.105Z,63.99
2023-06-17T02:52:42.082Z,64.01
2023-06-17T02:53:14.074Z,64.14
2023-06-17T02:53:46.015Z,63.96
2023-06-17T02:54:18.078Z,63.83
2023-06-17T02:54:51.679Z,64.14
2023-06-17T02:55:26.712Z,64.10
2023-06-17T02:55:58.826Z,64.34
2023-06-17T02:56:31.014Z,64.35
2023-06-17T02:57:03.039Z,64.01
2023-06-17T02:57:35.030Z,64.15
2023-06-17T02:58:07.058Z,63.98
2023-06-17T02:58:40.181Z,64.00
2023-06-17T02:59:15.602Z,64.53
2023-06-17T02:59:48.678Z,64.01
2023-06-17T03:00:22.310Z,63.99
2023-06-17T03:00:59.039Z,63.73
2023-06-17T03:01:31.663Z,64.01
2023-06-17T03:02:03.907Z,64.15
2023-06-17T03:02:36.177Z,64.25
2023-06-17T03:03:08.270Z,64.27
2023-06-17T03:03:43.001Z,64.03
2023-06-17T03:04:15.077Z,64.19
2023-06-17T03:04:47.811Z,64.33
2023-06-17T03:05:19.869Z,64.33
2023-06-17T03:05:52.244Z,64.05
2023-06-17T03:06:24.400Z,64.21
2023-06-17T03:06:56.375Z,64.31
2023-06-17T03:07:28.428Z,63.91
2023-06-17T03:08:01.055Z,64.19
2023-06-17T03:08:38.347Z,64.15
2023-06-17T03:09:10.336Z,64.41
2023-06-17T03:09:42.441Z,64.10
2023-06-17T03:10:15.335Z,64.01
2023-06-17T03:10:47.334Z,64.14
2023-06-17T03:11:19.372Z,64.44
2023-06-17T03:11:51.280Z,64.31
2023-06-17T03:12:23.276Z,64.38
2023-06-17T03:12:55.339Z,64.38
2023-06-17T03:13:28.148Z,64.52
2023-06-17T03:14:00.164Z,64.12
2023-06-17T03:14:32.155Z,64.18
2023-06-17T03:15:04.399Z,64.46
2023-06-17T03:15:36.386Z,64.26
2023-06-17T03:16:08.358Z,64.27
2023-06-17T03:16:41.909Z,64.34
2023-06-17T03:17:13.918Z,64.38
2023-06-17T03:17:46.219Z,64.53
2023-06-17T03:18:18.293Z,64.23
2023-06-17T03:18:50.370Z,64.20
2023-06-17T03:19:23.679Z,64.59
2023-06-17T03:19:58.068Z,64.38
2023-06-17T03:20:32.197Z,64.53
2023-06-17T03:21:04.103Z,64.40
2023-06-17T03:21:40.613Z,64.77
2023-06-17T03:22:12.677Z,64.78
2023-06-17T03:22:45.417Z,64.28
2023-06-17T03:23:18.977Z,64.76
2023-06-17T03:23:52.021Z,64.43
2023-06-17T03:24:24.579Z,64.70
2023-06-17T03:24:56.914Z,64.38
2023-06-17T03:25:28.852Z,64.26
2023-06-17T03:26:00.937Z,64.12
2023-06-17T03:26:32.902Z,64.36
2023-06-17T03:27:05.035Z,64.03
2023-06-17T03:27:37.061Z,64.53
2023-06-17T03:28:09.073Z,64.42
2023-06-17T03:28:41.134Z,64.00
2023-06-17T03:29:13.111Z,64.44
2023-06-17T03:29:45.126Z,64.36
2023-06-17T03:30:17.048Z,64.18
2023-06-17T03:30:49.181Z,64.25
2023-06-17T03:31:21.986Z,64.24
2023-06-17T03:31:58.235Z,64.34
2023-06-17T03:32:30.639Z,64.37
2023-06-17T03:33:03.145Z,64.34
2023-06-17T03:33:35.107Z,64.23
2023-06-17T03:34:07.047Z,64.13
2023-06-17T03:34:39.016Z,64.35
2023-06-17T03:35:10.921Z,63.93
2023-06-17T03:35:42.906Z,63.76
2023-06-17T03:36:14.803Z,63.75
2023-06-17T03:36:48.807Z,63.78
2023-06-17T03:37:21.984Z,64.57
2023-06-17T03:37:53.938Z,63.87
2023-06-17T03:38:25.873Z,64.06
2023-06-17T03:38:58.729Z,64.07
2023-06-17T03:39:31.017Z,63.77
2023-06-17T03:40:03.936Z,64.21
2023-06-17T03:40:35.991Z,63.84
2023-06-17T03:41:08.081Z,64.13
2023-06-17T03:41:40.057Z,63.98
2023-06-17T03:42:12.030Z,63.76
2023-06-17T03:42:44.003Z,64.24
2023-06-17T03:43:16.780Z,64.12
2023-06-17T03:43:48.712Z,63.91
2023-06-17T03:44:20.626Z,63.94
2023-06-17T03:44:52.631Z,63.75
2023-06-17T03:45:24.737Z,63.86
2023-06-17T03:45:56.664Z,63.96
2023-06-17T03:46:28.585Z,64.37
2023-06-17T03:47:01.380Z,63.75
2023-06-17T03:47:33.435Z,63.85
2023-06-17T03:48:05.645Z,63.86
2023-06-17T03:48:37.587Z,63.97
2023-06-17T03:49:09.570Z,63.70
2023-06-17T03:49:41.841Z,63.41
2023-06-17T03:50:13.854Z,64.20
2023-06-17T03:50:45.794Z,63.88
2023-06-17T03:51:18.114Z,63.56
2023-06-17T03:51:50.076Z,63.97
2023-06-17T03:52:22.120Z,63.49
2023-06-17T03:52:54.063Z,63.81
2023-06-17T03:53:26.083Z,63.82
2023-06-17T03:53:58.109Z,63.81
2023-06-17T03:54:30.028Z,63.46
2023-06-17T03:55:02.069Z,64.01
2023-06-17T03:55:34.198Z,63.31
2023-06-17T03:56:07.057Z,63.83
2023-06-17T03:56:38.999Z,63.68
2023-06-17T03:57:11.274Z,63.61
2023-06-17T03:57:43.999Z,63.60
2023-06-17T03:58:16.331Z,63.71
2023-06-17T03:58:48.335Z,64.03
2023-06-17T03:59:20.270Z,64.04
2023-06-17T03:59:52.272Z,63.37
2023-06-17T04:00:24.756Z,63.50
2023-06-17T04:00:57.625Z,63.35
2023-06-17T04:01:29.587Z,63.46
2023-06-17T04:02:01.481Z,63.47
2023-06-17T04:02:33.561Z,63.71
2023-06-17T04:03:05.876Z,63.57
2023-06-17T04:03:39.379Z,63.62
2023-06-17T04:04:11.400Z,63.61
2023-06-17T04:04:44.248Z,63.26
2023-06-17T04:05:16.761Z,63.68
2023-06-17T04:05:50.448Z,63.36
2023-06-17T04:06:22.370Z,63.29
2023-06-17T04:06:54.330Z,63.53
2023-06-17T04:07:26.305Z,63.37
2023-06-17T04:08:00.176Z,63.36
2023-06-17T04:08:34.183Z,63.67
2023-06-17T04:09:06.650Z,63.35
2023-06-17T04:09:38.656Z,63.69
2023-06-17T04:10:11.068Z,63.63
2023-06-17T04:10:43.019Z,63.59
2023-06-17T04:11:16.067Z,63.71
2023-06-17T04:11:48.006Z,63.42
2023-06-17T04:12:20.051Z,63.85
2023-06-17T04:12:52.058Z,63.59
2023-06-17T04:13:24.010Z,63.82
2023-06-17T04:13:55.938Z,63.47
2023-06-17T04:14:27.875Z,63.16
2023-06-17T04:14:59.806Z,63.33
2023-06-17T04:15:31.763Z,63.46
2023-06-17T04:16:03.658Z,63.13
2023-06-17T04:16:36.945Z,63.66
2023-06-17T04:17:08.944Z,63.43
2023-06-17T04:17:41.025Z,63.50
2023-06-17T04:18:13.108Z,63.58
2023-06-17T04:18:45.136Z,63.51
2023-06-17T04:19:18.772Z,63.46
2023-06-17T04:19:50.790Z,63.87
2023-06-17T04:20:27.190Z,63.42
2023-06-17T04:21:01.275Z,63.63
2023-06-17T04:21:33.287Z,63.38
2023-06-17T04:22:06.534Z,63.37
2023-06-17T04:22:43.114Z,63.75
2023-06-17T04:23:15.025Z,63.46
2023-06-17T04:23:46.978Z,63.71
2023-06-17T04:24:18.923Z,63.71
2023-06-17T04:24:57.128Z,63.31
2023-06-17T04:25:29.217Z,63.79
2023-06-17T04:26:01.918Z,63.29
2023-06-17T04:26:33.909Z,63.60
2023-06-17T04:27:07.376Z,63.66
2023-06-17T04:27:40.150Z,63.60
2023-06-17T04:28:14.348Z,63.56
2023-06-17T04:28:47.344Z,63.01
2023-06-17T04:29:19.881Z,62.92
2023-06-17T04:29:51.835Z,63.26
2023-06-17T04:30:26.587Z,62.98
2023-06-17T04:31:00.383Z,63.35
2023-06-17T04:31:33.644Z,62.89
2023-06-17T04:32:11.583Z,63.03
2023-06-17T04:32:46.476Z,62.90
2023-06-17T04:33:19.326Z,62.80
2023-06-17T04:33:51.297Z,62.96
2023-06-17T04:34:23.771Z,63.04
2023-06-17T04:34:55.731Z,63.31
2023-06-17T04:35:35.033Z,62.74
2023-06-17T04:36:09.703Z,63.14
2023-06-17T04:36:42.950Z,62.93
2023-06-17T04:37:18.419Z,62.84
2023-06-17T04:37:55.136Z,62.51
2023-06-17T04:38:27.528Z,62.28
2023-06-17T04:38:59.936Z,62.50
2023-06-17T04:39:38.138Z,62.62
2023-06-17T04:40:13.516Z,62.31
2023-06-17T04:40:45.468Z,62.70
2023-06-17T04:41:18.420Z,62.02
2023-06-17T04:41:51.162Z,62.61
2023-06-17T04:42:23.925Z,62.78
2023-06-17T04:42:56.114Z,62.49
2023-06-17T04:43:29.712Z,62.46
2023-06-17T04:44:02.458Z,62.55
2023-06-17T04:44:40.861Z,62.05
2023-06-17T04:45:12.889Z,62.26
2023-06-17T04:45:46.105Z,62.43
2023-06-17T04:46:18.151Z,62.44
2023-06-17T04:46:50.802Z,61.89
2023-06-17T04:47:23.380Z,62.43
2023-06-17T04:47:56.233Z,62.49
2023-06-17T04:48:32.168Z,61.83
2023-06-17T04:49:05.248Z,62.08
2023-06-17T04:49:42.906Z,62.18
2023-06-17T04:50:18.796Z,62.30
2023-06-17T04:50:51.097Z,61.51
2023-06-17T04:51:23.135Z,61.75
2023-06-17T04:51:55.062Z,61.67
2023-06-17T04:52:30.914Z,62.08
2023-06-17T04:53:05.342Z,61.95
2023-06-17T04:53:40.262Z,61.99
2023-06-17T04:54:12.253Z,61.79
2023-06-17T04:54:45.178Z,61.50
2023-06-17T04:55:19.784Z,62.53
2023-06-17T04:55:52.648Z,62.26
2023-06-17T04:56:28.092Z,62.56
2023-06-17T04:57:00.610Z,62.61
2023-06-17T04:57:38.906Z,62.08
2023-06-17T04:58:11.106Z,62.17
2023-06-17T04:58:43.120Z,62.22
2023-06-17T04:59:15.108Z,62.69
2023-06-17T04:59:50.260Z,62.11
2023-06-17T05:00:22.683Z,62.36
2023-06-17T05:01:00.676Z,62.19
2023-06-17T05:01:39.248Z,62.13
2023-06-17T05:02:11.616Z,62.63
2023-06-17T05:02:43.611Z,62.47
2023-06-17T05:03:15.965Z,62.31
2023-06-17T05:03:49.574Z,62.27
2023-06-17T05:04:29.520Z,62.54
2023-06-17T05:05:01.517Z,62.55
2023-06-17T05:05:33.622Z,62.50
2023-06-17T05:06:05.721Z,62.70
2023-06-17T05:06:37.822Z,62.35
2023-06-17T05:07:09.866Z,63.23
2023-06-17T05:07:41.873Z,63.11
2023-06-17T05:08:13.941Z,62.83
2023-06-17T05:08:46.217Z,62.93
2023-06-17T05:09:18.405Z,63.07
2023-06-17T05:09:50.487Z,63.69
2023-06-17T05:10:35.729Z,63.04
2023-06-17T05:11:08.597Z,63.03
2023-06-17T05:12:30.643Z,63.71
2023-06-17T05:13:05.615Z,63.59
2023-06-17T05:13:39.610Z,63.14
2023-06-17T05:14:32.150Z,63.57
2023-06-17T05:15:08.367Z,63.94
2023-06-17T05:15:41.426Z,63.70
2023-06-17T05:16:13.591Z,64.40
2023-06-17T05:16:46.468Z,63.46
2023-06-17T05:17:19.688Z,64.31
2023-06-17T05:17:52.293Z,63.93
2023-06-17T05:18:26.134Z,63.68
2023-06-17T05:18:58.590Z,63.94
2023-06-17T05:19:30.533Z,64.11
2023-06-17T05:20:02.497Z,63.74
2023-06-17T05:20:38.404Z,63.71
2023-06-17T05:21:49.889Z,64.54
2023-06-17T05:22:50.673Z,63.64
2023-06-17T05:23:23.102Z,64.09
2023-06-17T05:23:56.105Z,64.16
2023-06-17T05:24:28.181Z,64.41
2023-06-17T05:25:00.283Z,64.10
2023-06-17T05:25:32.216Z,63.84
2023-06-17T05:26:04.155Z,63.66
2023-06-17T05:26:36.091Z,63.99
2023-06-17T05:27:09.658Z,63.84
2023-06-17T05:27:41.715Z,64.31
2023-06-17T05:28:14.456Z,64.34
2023-06-17T05:28:46.383Z,64.45
2023-06-17T05:29:18.561Z,64.50
2023-06-17T05:29:50.790Z,64.40
2023-06-17T05:30:22.941Z,64.19
2023-06-17T05:30:55.115Z,64.32
2023-06-17T05:31:27.420Z,64.51
2023-06-17T05:31:59.400Z,64.52
2023-06-17T05:32:31.450Z,64.09
2023-06-17T05:33:03.716Z,64.12
2023-06-17T05:33:35.818Z,64.05
2023-06-17T05:34:07.860Z,64.03
2023-06-17T05:34:40.379Z,64.26
2023-06-17T05:35:13.197Z,64.36
2023-06-17T05:35:45.275Z,64.06
2023-06-17T05:36:17.229Z,63.44
2023-06-17T05:36:49.202Z,63.90
2023-06-17T05:37:21.261Z,63.94
2023-06-17T05:37:53.178Z,64.23
2023-06-17T05:38:25.083Z,64.25
2023-06-17T05:38:57.174Z,64.42
2023-06-17T05:39:29.281Z,64.18
2023-06-17T05:40:01.287Z,64.12
2023-06-17T05:40:33.252Z,64.43
2023-06-17T05:41:05.228Z,64.05
2023-06-17T05:41:37.129Z,64.56
2023-06-17T05:42:09.284Z,64.89
2023-06-17T05:42:41.357Z,64.12
2023-06-17T05:43:13.333Z,64.54
2023-06-17T05:43:45.261Z,64.32
2023-06-17T05:44:19.033Z,64.76
2023-06-17T05:44:51.151Z,64.49
2023-06-17T05:45:23.141Z,64.61
2023-06-17T05:45:55.760Z,64.54
2023-06-17T05:46:27.921Z,64.67
2023-06-17T05:46:59.925Z,64.72
2023-06-17T05:47:31.995Z,64.96
2023-06-17T05:48:04.193Z,64.65
2023-06-17T05:48:36.256Z,64.93
2023-06-17T05:49:08.176Z,65.06
2023-06-17T05:49:40.792Z,64.63
2023-06-17T05:50:12.844Z,64.93
2023-06-17T05:50:44.933Z,64.77
2023-06-17T05:51:18.220Z,64.92
2023-06-17T05:51:50.218Z,64.55
2023-06-17T05:52:23.750Z,64.30
2023-06-17T05:52:55.655Z,63.97
2023-06-17T05:53:27.726Z,64.77
2023-06-17T05:53:59.697Z,64.42
2023-06-17T05:54:31.679Z,64.83
2023-06-17T05:55:03.703Z,64.58
2023-06-17T05:55:38.289Z,65.30
2023-06-17T05:56:11.127Z,65.52
2023-06-17T05:56:43.042Z,65.32
2023-06-17T05:57:15.172Z,65.08
2023-06-17T05:57:47.201Z,65.05
2023-06-17T05:58:19.338Z,65.73
2023-06-17T05:58:51.624Z,65.47
2023-06-17T05:59:25.121Z,64.83
2023-06-17T05:59:57.092Z,65.74
2023-06-17T06:00:29.320Z,64.92
2023-06-17T06:01:01.461Z,65.10
2023-06-17T06:01:33.692Z,65.68
2023-06-17T06:02:06.306Z,64.94
2023-06-17T06:02:38.302Z,65.21
2023-06-17T06:03:10.426Z,65.24
2023-06-17T06:03:42.493Z,65.24
2023-06-17T06:04:14.607Z,65.27
2023-06-17T06:04:48.436Z,65.47
2023-06-17T06:05:20.378Z,65.34
2023-06-17T06:05:52.401Z,65.15
2023-06-17T06:06:24.417Z,65.08
2023-06-17T06:06:56.406Z,64.94
2023-06-17T06:07:28.429Z,65.16
2023-06-17T06:08:00.479Z,65.02
2023-06-17T06:08:32.522Z,65.37
2023-06-17T06:09:04.565Z,64.82
2023-06-17T06:09:36.606Z,64.59
2023-06-17T06:10:09.341Z,65.00
2023-06-17T06:10:41.795Z,64.05
2023-06-17T06:11:13.805Z,64.91
2023-06-17T06:11:46.495Z,64.61
2023-06-17T06:12:18.490Z,64.45
2023-06-17T06:12:51.719Z,63.79
2023-06-17T06:13:23.709Z,64.51
2023-06-17T06:13:55.686Z,64.00
2023-06-17T06:14:27.770Z,64.19
2023-06-17T06:14:59.938Z,64.30
2023-06-17T06:15:31.993Z,63.68
2023-06-17T06:16:05.018Z,63.91
2023-06-17T06:16:37.203Z,63.89
2023-06-17T06:17:09.104Z,63.76
2023-06-17T06:17:42.146Z,64.03
2023-06-17T06:18:15.047Z,64.21
2023-06-17T06:18:47.096Z,63.40
2023-06-17T06:19:19.297Z,63.12
2023-06-17T06:19:54.485Z,63.73
2023-06-17T06:20:30.274Z,63.79
2023-06-17T06:21:02.214Z,63.62
2023-06-17T06:21:34.151Z,63.77
2023-06-17T06:22:06.244Z,63.44
2023-06-17T06:22:39.044Z,63.39
2023-06-17T06:23:11.023Z,63.01
2023-06-17T06:23:42.941Z,62.84
2023-06-17T06:24:16.917Z,63.12
2023-06-17T06:24:49.475Z,63.45
2023-06-17T06:25:21.885Z,62.48
2023-06-17T06:25:53.929Z,62.74
2023-06-17T06:26:26.550Z,62.58
2023-06-17T06:26:58.489Z,62.83
2023-06-17T06:27:30.476Z,62.57
2023-06-17T06:28:02.464Z,62.68
2023-06-17T06:28:34.517Z,62.22
2023-06-17T06:29:08.610Z,62.68
2023-06-17T06:29:40.919Z,62.49
2023-06-17T06:30:14.039Z,62.82
2023-06-17T06:30:46.242Z,62.04
2023-06-17T06:31:18.460Z,62.20
2023-06-17T06:31:50.608Z,61.95
2023-06-17T06:32:22.611Z,61.89
2023-06-17T06:32:54.764Z,61.67
2023-06-17T06:33:26.971Z,61.48
2023-06-17T06:33:59.013Z,60.89
2023-06-17T06:34:31.462Z,61.31
2023-06-17T06:35:04.229Z,61.19
2023-06-17T06:35:36.180Z,61.29
2023-06-17T06:36:11.316Z,60.96
2023-06-17T06:36:43.299Z,61.58
2023-06-17T06:37:15.729Z,61.36
2023-06-17T06:37:48.413Z,60.95
2023-06-17T06:38:20.458Z,60.56
2023-06-17T06:38:52.687Z,60.49
2023-06-17T06:39:25.364Z,60.04
2023-06-17T06:39:57.445Z,59.40
2023-06-17T06:40:29.627Z,59.29
2023-06-17T06:41:01.695Z,58.81
2023-06-17T06:41:37.678Z,58.95
2023-06-17T06:42:09.874Z,58.87
2023-06-17T06:42:42.418Z,58.39
2023-06-17T06:43:14.432Z,59.26
2023-06-17T06:43:47.142Z,59.18
2023-06-17T06:44:19.730Z,58.62
2023-06-17T06:44:51.731Z,59.14
2023-06-17T06:45:23.819Z,59.02
2023-06-17T06:45:56.301Z,58.71
2023-06-17T06:46:28.848Z,58.59
2023-06-17T06:47:01.316Z,57.92
2023-06-17T06:47:34.003Z,57.86
2023-06-17T06:48:06.757Z,57.82
2023-06-17T06:48:38.950Z,58.14
2023-06-17T06:49:11.166Z,57.22
2023-06-17T06:49:43.101Z,57.29
2023-06-17T06:50:15.589Z,57.07
2023-06-17T06:50:47.641Z,57.07
2023-06-17T06:51:20.844Z,57.06
2023-06-17T06:51:52.813Z,57.17
2023-06-17T06:52:24.775Z,57.04
2023-06-17T06:52:59.692Z,56.71
2023-06-17T06:53:32.132Z,57.83
2023-06-17T06:54:07.155Z,57.76
2023-06-17T06:54:39.399Z,57.57
2023-06-17T06:55:11.536Z,57.51
2023-06-17T06:55:43.702Z,57.65
2023-06-17T06:56:15.955Z,57.27
2023-06-17T06:56:47.830Z,57.23
2023-06-17T06:57:19.984Z,56.80
2023-06-17T06:57:51.970Z,56.69
2023-06-17T06:58:24.146Z,56.79
2023-06-17T06:58:59.232Z,56.81
2023-06-17T06:59:31.291Z,56.93
2023-06-17T07:00:09.293Z,56.81
2023-06-17T07:00:41.302Z,56.70
2023-06-17T07:01:14.781Z,56.77
2023-06-17T07:01:46.915Z,56.27
2023-06-17T07:02:22.407Z,56.17
2023-06-17T07:02:55.517Z,56.45
2023-06-17T07:03:28.434Z,56.38
2023-06-17T07:04:00.989Z,56.29
2023-06-17T07:04:33.582Z,56.85
2023-06-17T07:05:11.659Z,55.94
2023-06-17T07:05:47.436Z,55.84
2023-06-17T07:06:20.833Z,55.46
2023-06-17T07:06:52.860Z,55.64
2023-06-17T07:07:25.490Z,55.69
2023-06-17T07:08:01.004Z,55.26
2023-06-17T07:08:40.144Z,55.38
2023-06-17T07:09:12.326Z,55.62
2023-06-17T07:09:50.441Z,55.73
2023-06-17T07:10:22.892Z,55.47